createdAt,value
2018-08-10T00:00:23.656Z,21.73
2018-08-10T00:02:53.695Z,21.67
2018-08-10T00:05:22.821Z,21.36
2018-08-10T00:07:51.748Z,21.20
2018-08-10T00:10:20.720Z,21.36
2018-08-10T00:12:50.845Z,21.10
2018-08-10T00:15:20.869Z,21.14
2018-08-10T00:17:53.050Z,21.30
2018-08-10T00:20:22.065Z,21.01
2018-08-10T00:22:50.957Z,20.99
2018-08-10T00:25:19.875Z,21.09
2018-08-10T00:27:49.022Z,21.27
2018-08-10T00:30:19.006Z,20.98
2018-08-10T00:32:49.182Z,21.29
2018-08-10T00:35:18.181Z,20.96
2018-08-10T00:37:48.037Z,21.19
2018-08-10T00:40:19.439Z,21.14
2018-08-10T00:42:48.389Z,21.15
2018-08-10T00:45:17.931Z,21.23
2018-08-10T00:47:47.490Z,21.13
2018-08-10T00:50:17.230Z,21.06
2018-08-10T00:52:46.827Z,21.01
2018-08-10T00:55:17.029Z,20.93
2018-08-10T00:57:46.438Z,21.03
2018-08-10T01:00:18.501Z,21.12
2018-08-10T01:02:53.896Z,21.07
2018-08-10T01:05:22.907Z,20.94
2018-08-10T01:07:51.899Z,20.87
2018-08-10T01:10:21.266Z,21.00
2018-08-10T01:12:50.275Z,20.92
2018-08-10T01:15:19.267Z,20.62
2018-08-10T01:17:48.255Z,20.70
2018-08-10T01:20:22.839Z,20.70
2018-08-10T01:22:57.640Z,20.78
2018-08-10T01:25:27.596Z,20.80
2018-08-10T01:28:03.817Z,20.74
2018-08-10T01:30:33.992Z,20.83
2018-08-10T01:36:10.362Z,20.75
2018-08-10T01:38:44.330Z,20.88
2018-08-10T01:41:27.481Z,20.75
2018-08-10T01:47:01.530Z,20.91
2018-08-10T01:49:31.453Z,20.87
2018-08-10T01:52:01.458Z,20.58
2018-08-10T01:54:30.503Z,20.66
2018-08-10T01:56:59.441Z,20.61
2018-08-10T01:59:29.471Z,20.89
2018-08-10T02:01:59.054Z,20.55
2018-08-10T02:04:31.191Z,20.64
2018-08-10T02:07:02.337Z,20.66
2018-08-10T02:09:31.286Z,20.51
2018-08-10T02:12:00.382Z,20.52
2018-08-10T02:14:29.731Z,20.49
2018-08-10T02:16:58.726Z,20.58
2018-08-10T02:19:27.712Z,20.50
2018-08-10T02:21:56.972Z,20.55
2018-08-10T02:24:25.920Z,20.45
2018-08-10T02:26:55.389Z,20.20
2018-08-10T02:29:24.396Z,20.27
2018-08-10T02:31:53.400Z,20.40
2018-08-10T02:34:22.452Z,20.33
2018-08-10T02:36:52.326Z,20.31
2018-08-10T02:39:21.248Z,20.33
2018-08-10T02:41:50.873Z,20.54
2018-08-10T02:44:19.909Z,20.36
2018-08-10T02:46:48.918Z,20.32
2018-08-10T02:49:17.939Z,20.61
2018-08-10T02:51:47.028Z,20.50
2018-08-10T02:54:16.507Z,20.34
2018-08-10T02:56:45.636Z,20.31
2018-08-10T02:59:14.622Z,20.56
2018-08-10T03:01:43.598Z,20.56
2018-08-10T03:04:12.691Z,20.56
2018-08-10T03:06:42.880Z,20.71
2018-08-10T03:09:12.134Z,20.53
2018-08-10T03:11:41.899Z,20.60
2018-08-10T03:14:11.035Z,20.30
2018-08-10T03:16:40.134Z,20.37
2018-08-10T03:19:09.127Z,20.34
2018-08-10T03:21:38.180Z,20.26
2018-08-10T03:24:08.448Z,20.22
2018-08-10T03:26:38.378Z,20.16
2018-08-10T03:29:07.362Z,20.11
2018-08-10T03:31:36.498Z,19.93
2018-08-10T03:34:05.489Z,20.08
2018-08-10T03:36:34.369Z,20.02
2018-08-10T03:39:03.420Z,20.12
2018-08-10T03:41:32.639Z,20.03
2018-08-10T03:44:01.717Z,20.07
2018-08-10T03:46:30.977Z,19.93
2018-08-10T03:49:00.093Z,19.90
2018-08-10T03:51:29.100Z,19.90
2018-08-10T03:53:58.127Z,20.09
2018-08-10T03:56:27.265Z,20.08
2018-08-10T03:58:56.352Z,19.86
2018-08-10T04:01:25.315Z,19.97
2018-08-10T04:03:55.689Z,19.82
2018-08-10T04:06:24.938Z,19.85
2018-08-10T04:08:54.128Z,19.64
2018-08-10T04:11:23.252Z,19.87
2018-08-10T04:13:53.100Z,19.77
2018-08-10T04:16:22.190Z,19.78
2018-08-10T04:18:51.103Z,19.77
2018-08-10T04:21:20.185Z,19.44
2018-08-10T04:23:49.923Z,19.43
2018-08-10T04:26:19.820Z,19.51
2018-08-10T04:28:50.978Z,19.37
2018-08-10T04:31:20.785Z,19.47
2018-08-10T04:33:50.248Z,19.57
2018-08-10T04:36:20.214Z,19.41
2018-08-10T04:38:52.810Z,19.41
2018-08-10T04:41:26.519Z,19.37
2018-08-10T04:43:55.660Z,19.23
2018-08-10T04:46:25.208Z,19.20
2018-08-10T04:48:54.779Z,19.52
2018-08-10T04:51:23.763Z,19.25
2018-08-10T04:53:53.136Z,19.30
2018-08-10T04:56:22.097Z,19.09
2018-08-10T04:58:50.995Z,19.25
2018-08-10T05:01:19.912Z,19.19
2018-08-10T05:03:48.900Z,19.06
2018-08-10T05:06:17.869Z,19.21
2018-08-10T05:08:46.949Z,19.12
2018-08-10T05:11:18.180Z,19.06
2018-08-10T05:13:47.177Z,19.27
2018-08-10T05:16:16.125Z,19.00
2018-08-10T05:18:45.030Z,19.04
2018-08-10T05:21:13.963Z,19.11
2018-08-10T05:23:42.988Z,18.95
2018-08-10T05:26:11.875Z,18.80
2018-08-10T05:28:40.811Z,18.89
2018-08-10T05:31:11.912Z,19.00
2018-08-10T05:33:40.796Z,18.82
2018-08-10T05:36:09.722Z,18.86
2018-08-10T05:38:38.660Z,18.86
2018-08-10T05:41:07.537Z,18.78
2018-08-10T05:43:36.550Z,18.81
2018-08-10T05:46:05.389Z,18.85
2018-08-10T05:48:40.418Z,18.75
2018-08-10T05:51:13.558Z,18.84
2018-08-10T05:53:42.799Z,18.79
2018-08-10T05:56:12.244Z,18.72
2018-08-10T05:58:41.205Z,18.88
2018-08-10T06:01:10.222Z,18.96
2018-08-10T06:03:39.262Z,19.17
2018-08-10T06:06:08.068Z,18.84
2018-08-10T06:08:38.542Z,18.81
2018-08-10T06:11:08.732Z,18.87
2018-08-10T06:13:37.670Z,18.89
2018-08-10T06:16:06.682Z,18.61
2018-08-10T06:18:35.576Z,18.88
2018-08-10T06:21:04.528Z,18.76
2018-08-10T06:23:33.510Z,18.71
2018-08-10T06:26:02.476Z,18.73
2018-08-10T06:28:31.547Z,18.73
2018-08-10T06:31:00.448Z,18.85
2018-08-10T06:33:29.341Z,18.80
2018-08-10T06:35:58.473Z,18.93
2018-08-10T06:38:27.419Z,19.04
2018-08-10T06:40:56.534Z,19.03
2018-08-10T06:43:25.616Z,18.69
2018-08-10T06:45:54.651Z,18.65
2018-08-10T06:48:23.523Z,18.72
2018-08-10T06:50:52.444Z,18.63
2018-08-10T06:53:21.338Z,18.75
2018-08-10T06:55:50.281Z,18.86
2018-08-10T07:01:19.128Z,19.01
2018-08-10T07:03:48.641Z,19.19
2018-08-10T07:06:17.674Z,19.31
2018-08-10T07:08:46.742Z,19.39
2018-08-10T07:11:15.628Z,19.33
2018-08-10T07:13:44.709Z,19.58
2018-08-10T07:16:13.504Z,19.53
2018-08-10T07:18:42.489Z,19.41
2018-08-10T07:21:11.345Z,19.41
2018-08-10T07:23:40.416Z,19.26
2018-08-10T07:26:09.387Z,19.29
2018-08-10T07:28:38.458Z,19.38
2018-08-10T07:31:07.845Z,19.27
2018-08-10T07:33:36.798Z,19.12
2018-08-10T07:36:05.875Z,19.38
2018-08-10T07:38:35.133Z,19.16
2018-08-10T07:41:03.949Z,19.40
2018-08-10T07:43:32.849Z,19.32
2018-08-10T07:46:02.052Z,19.23
2018-08-10T07:48:34.592Z,19.31
2018-08-10T07:51:03.719Z,19.37
2018-08-10T07:53:32.712Z,19.43
2018-08-10T07:56:02.384Z,19.52
2018-08-10T07:58:31.471Z,19.46
2018-08-10T08:01:00.361Z,19.37
2018-08-10T08:03:29.257Z,19.36
2018-08-10T08:05:58.284Z,19.26
2018-08-10T08:08:31.001Z,19.49
2018-08-10T08:11:00.167Z,19.63
2018-08-10T08:13:29.097Z,19.75
2018-08-10T08:15:58.096Z,19.86
2018-08-10T08:18:27.232Z,19.48
2018-08-10T08:21:07.871Z,19.54
2018-08-10T08:23:37.059Z,19.24
2018-08-10T08:26:07.192Z,19.28
2018-08-10T08:28:36.677Z,19.37
2018-08-10T08:31:06.180Z,19.31
2018-08-10T08:33:45.240Z,19.30
2018-08-10T08:36:14.255Z,19.40
2018-08-10T08:38:54.688Z,19.23
2018-08-10T08:41:24.047Z,19.48
2018-08-10T08:44:30.831Z,19.68
2018-08-10T08:46:59.856Z,19.69
2018-08-10T08:49:28.825Z,19.72
2018-08-10T08:51:57.857Z,19.80
2018-08-10T08:55:34.949Z,19.83
2018-08-10T08:58:04.057Z,19.56
2018-08-10T09:00:33.253Z,19.69
2018-08-10T09:03:02.275Z,19.71
2018-08-10T09:05:31.259Z,19.63
2018-08-10T09:08:00.152Z,19.90
2018-08-10T09:10:35.860Z,19.85
2018-08-10T09:13:04.834Z,20.09
2018-08-10T09:15:33.774Z,20.16
2018-08-10T09:18:02.826Z,20.30
2018-08-10T09:20:31.735Z,20.11
2018-08-10T09:23:00.755Z,20.04
2018-08-10T09:25:29.919Z,20.32
2018-08-10T09:27:58.819Z,20.09
2018-08-10T09:30:27.707Z,20.31
2018-08-10T09:32:56.748Z,20.45
2018-08-10T09:35:25.640Z,20.41
2018-08-10T09:37:54.662Z,20.78
2018-08-10T09:40:23.628Z,20.55
2018-08-10T09:42:52.672Z,20.33
2018-08-10T09:45:21.589Z,20.57
2018-08-10T09:47:50.970Z,20.53
2018-08-10T09:50:20.439Z,20.67
2018-08-10T09:53:01.664Z,20.54
2018-08-10T09:55:39.215Z,20.51
2018-08-10T09:58:15.386Z,20.59
2018-08-10T10:00:49.616Z,20.78
2018-08-10T10:03:26.275Z,20.68
2018-08-10T10:05:56.568Z,20.55
2018-08-10T10:08:26.072Z,20.67
2018-08-10T10:10:55.088Z,20.99
2018-08-10T10:13:24.028Z,20.98
2018-08-10T10:15:53.089Z,21.05
2018-08-10T10:18:21.979Z,21.16
2018-08-10T10:20:50.951Z,20.81
2018-08-10T10:23:20.075Z,20.91
2018-08-10T10:25:48.990Z,20.97
2018-08-10T10:28:17.980Z,21.01
2018-08-10T10:30:46.881Z,20.84
2018-08-10T10:33:15.788Z,21.03
2018-08-10T10:35:44.857Z,21.12
2018-08-10T10:38:13.770Z,21.26
2018-08-10T10:40:42.702Z,21.10
2018-08-10T10:43:11.692Z,21.18
2018-08-10T10:45:40.560Z,21.63
2018-08-10T10:48:09.625Z,21.35
2018-08-10T10:50:38.654Z,21.51
2018-08-10T10:53:07.630Z,21.67
2018-08-10T10:55:36.675Z,21.71
2018-08-10T10:58:05.540Z,21.71
2018-08-10T11:00:34.435Z,21.78
2018-08-10T11:03:03.467Z,21.93
2018-08-10T11:05:32.453Z,21.91
2018-08-10T11:08:01.382Z,21.93
2018-08-10T11:10:30.302Z,21.79
2018-08-10T11:12:59.281Z,21.88
2018-08-10T11:15:28.196Z,21.93
2018-08-10T11:17:57.197Z,21.95
2018-08-10T11:20:26.164Z,22.05
2018-08-10T11:22:55.223Z,22.21
2018-08-10T11:25:24.302Z,21.92
2018-08-10T11:27:56.025Z,21.99
2018-08-10T11:30:26.160Z,21.76
2018-08-10T11:32:55.044Z,22.00
2018-08-10T11:35:24.016Z,22.15
2018-08-10T11:37:52.959Z,22.06
2018-08-10T11:40:22.060Z,22.22
2018-08-10T11:42:51.017Z,22.09
2018-08-10T11:45:19.883Z,22.08
2018-08-10T11:47:48.906Z,22.18
2018-08-10T11:50:17.942Z,22.19
2018-08-10T11:52:46.883Z,21.98
2018-08-10T11:55:15.865Z,21.98
2018-08-10T11:57:45.264Z,21.87
2018-08-10T12:00:15.489Z,21.68
2018-08-10T12:02:44.679Z,21.77
2018-08-10T12:05:14.459Z,21.79
2018-08-10T12:07:43.368Z,22.09
2018-08-10T12:10:12.357Z,22.16
2018-08-10T12:12:41.291Z,22.18
2018-08-10T12:15:12.204Z,22.23
2018-08-10T12:17:41.161Z,22.45
2018-08-10T12:20:10.620Z,22.60
2018-08-10T12:22:40.564Z,22.83
2018-08-10T12:25:09.656Z,22.67
2018-08-10T12:27:38.585Z,22.83
2018-08-10T12:30:09.617Z,22.95
2018-08-10T12:32:38.657Z,23.16
2018-08-10T12:35:08.129Z,22.93
2018-08-10T12:37:37.276Z,23.20
2018-08-10T12:40:06.391Z,23.44
2018-08-10T12:42:35.290Z,23.48
2018-08-10T12:45:04.501Z,23.36
2018-08-10T12:47:33.529Z,23.28
2018-08-10T12:50:03.214Z,22.81
2018-08-10T12:52:32.234Z,23.05
2018-08-10T12:55:01.931Z,23.24
2018-08-10T12:57:31.634Z,23.32
2018-08-10T13:00:00.867Z,23.52
2018-08-10T13:02:29.916Z,23.58
2018-08-10T13:04:58.816Z,23.54
2018-08-10T13:07:27.851Z,23.28
2018-08-10T13:09:56.914Z,23.02
2018-08-10T13:12:25.914Z,22.89
2018-08-10T13:14:54.943Z,22.82
2018-08-10T13:17:23.950Z,22.79
2018-08-10T13:19:52.980Z,23.15
2018-08-10T13:22:23.328Z,23.41
2018-08-10T13:24:52.333Z,23.81
2018-08-10T13:27:21.323Z,23.92
2018-08-10T13:29:50.321Z,23.81
2018-08-10T13:32:19.233Z,24.06
2018-08-10T13:34:48.231Z,24.49
2018-08-10T13:37:18.868Z,24.45
2018-08-10T13:39:48.903Z,24.40
2018-08-10T13:42:17.925Z,24.22
2018-08-10T13:44:46.992Z,23.96
2018-08-10T13:47:16.005Z,23.95
2018-08-10T13:49:44.995Z,23.66
2018-08-10T13:52:16.360Z,23.53
2018-08-10T13:54:46.554Z,23.33
2018-08-10T13:57:15.507Z,23.25
2018-08-10T13:59:44.500Z,23.10
2018-08-10T14:02:14.156Z,23.20
2018-08-10T14:04:43.039Z,23.09
2018-08-10T14:07:12.231Z,22.98
2018-08-10T14:09:41.427Z,22.99
2018-08-10T14:12:14.239Z,23.01
2018-08-10T14:14:43.728Z,22.78
2018-08-10T14:17:13.527Z,22.64
2018-08-10T14:19:44.047Z,22.76
2018-08-10T14:22:13.163Z,23.18
2018-08-10T14:24:43.875Z,23.45
2018-08-10T14:27:14.026Z,23.68
2018-08-10T14:29:45.754Z,23.69
2018-08-10T14:32:16.373Z,23.88
2018-08-10T14:34:45.359Z,23.82
2018-08-10T14:37:14.376Z,23.98
2018-08-10T14:39:43.715Z,24.22
2018-08-10T14:42:13.834Z,24.15
2018-08-10T14:44:44.193Z,23.62
2018-08-10T14:47:13.255Z,23.43
2018-08-10T14:49:45.085Z,23.23
2018-08-10T14:52:14.720Z,23.29
2018-08-10T14:54:45.078Z,23.13
2018-08-10T14:57:16.304Z,23.27
2018-08-10T14:59:46.746Z,23.29
2018-08-10T15:02:18.995Z,23.27
2018-08-10T15:04:49.811Z,23.20
2018-08-10T15:07:20.395Z,23.10
2018-08-10T15:09:58.422Z,22.93
2018-08-10T15:12:28.673Z,22.75
2018-08-10T15:14:57.424Z,22.65
2018-08-10T15:17:26.396Z,22.71
2018-08-10T15:19:55.524Z,22.71
2018-08-10T15:22:24.443Z,22.65
2018-08-10T15:24:53.447Z,22.65
2018-08-10T15:27:45.699Z,22.62
2018-08-10T15:30:16.742Z,22.28
2018-08-10T15:32:45.764Z,22.41
2018-08-10T15:35:16.087Z,22.49
2018-08-10T15:37:45.599Z,23.11
2018-08-10T15:40:17.306Z,23.10
2018-08-10T15:42:46.276Z,23.64
2018-08-10T15:45:16.319Z,23.83
2018-08-10T15:47:45.902Z,24.06
2018-08-10T15:50:15.141Z,24.08
2018-08-10T15:52:45.142Z,24.16
2018-08-10T15:55:19.095Z,24.22
2018-08-10T15:57:56.264Z,24.35
2018-08-10T16:00:26.015Z,24.32
2018-08-10T16:02:54.951Z,24.41
2018-08-10T16:05:30.586Z,24.38
2018-08-10T16:07:59.660Z,23.97
2018-08-10T16:10:28.666Z,23.95
2018-08-10T16:12:57.861Z,23.84
2018-08-10T16:15:26.821Z,23.56
2018-08-10T16:17:55.851Z,23.61
2018-08-10T16:20:24.940Z,23.87
2018-08-10T16:22:53.978Z,23.73
2018-08-10T16:25:23.012Z,23.70
2018-08-10T16:27:52.194Z,23.58
2018-08-10T16:30:21.252Z,23.36
2018-08-10T16:32:50.190Z,23.52
2018-08-10T16:35:19.165Z,23.26
2018-08-10T16:37:48.572Z,23.43
2018-08-10T16:40:21.671Z,23.17
2018-08-10T16:42:56.008Z,23.67
2018-08-10T16:45:32.033Z,23.78
2018-08-10T16:48:05.215Z,23.64
2018-08-10T16:50:40.508Z,23.76
2018-08-10T16:53:13.604Z,23.56
2018-08-10T16:55:43.551Z,23.28
2018-08-10T16:58:13.347Z,23.40
2018-08-10T17:00:44.126Z,23.25
2018-08-10T17:03:14.007Z,23.34
2018-08-10T17:05:44.173Z,23.38
2018-08-10T17:08:16.004Z,23.30
2018-08-10T17:10:45.761Z,23.26
2018-08-10T17:13:14.716Z,23.36
2018-08-10T17:15:43.756Z,23.31
2018-08-10T17:18:13.997Z,23.17
2018-08-10T17:20:44.021Z,22.99
2018-08-10T17:23:14.707Z,22.61
2018-08-10T17:25:43.679Z,22.86
2018-08-10T17:28:13.710Z,23.02
2018-08-10T17:30:42.845Z,22.87
2018-08-10T17:33:12.315Z,22.84
2018-08-10T17:35:42.883Z,22.86
2018-08-10T17:38:15.661Z,22.58
2018-08-10T17:40:46.688Z,22.91
2018-08-10T17:43:17.984Z,22.74
2018-08-10T17:45:57.578Z,22.57
2018-08-10T17:48:29.779Z,22.36
2018-08-10T17:51:03.230Z,22.72
2018-08-10T17:53:35.006Z,22.64
2018-08-10T17:56:04.356Z,22.43
2018-08-10T17:58:36.130Z,22.10
2018-08-10T18:01:05.763Z,22.27
2018-08-10T18:03:34.723Z,22.42
2018-08-10T18:06:05.544Z,22.54
2018-08-10T18:08:36.479Z,22.47
2018-08-10T18:11:05.596Z,22.56
2018-08-10T18:13:36.039Z,22.36
2018-08-10T18:16:05.900Z,22.38
2018-08-10T18:18:34.861Z,22.29
2018-08-10T18:21:03.820Z,22.35
2018-08-10T18:23:33.300Z,22.02
2018-08-10T18:26:03.334Z,21.93
2018-08-10T18:28:37.461Z,21.82
2018-08-10T18:31:06.646Z,21.44
2018-08-10T18:33:35.579Z,21.88
2018-08-10T18:36:06.595Z,22.09
2018-08-10T18:38:35.533Z,22.21
2018-08-10T18:41:04.505Z,22.10
2018-08-10T18:43:33.465Z,22.10
2018-08-10T18:46:02.412Z,22.02
2018-08-10T18:48:32.024Z,22.03
2018-08-10T18:51:02.066Z,21.60
2018-08-10T18:53:31.005Z,21.90
2018-08-10T18:56:00.057Z,21.81
2018-08-10T18:58:29.162Z,21.90
2018-08-10T19:00:58.059Z,21.77
2018-08-10T19:03:27.072Z,21.59
2018-08-10T19:05:56.324Z,21.15
2018-08-10T19:08:25.502Z,21.10
2018-08-10T19:10:54.386Z,21.45
2018-08-10T19:13:24.085Z,21.56
2018-08-10T19:15:54.072Z,21.40
2018-08-10T19:18:23.106Z,21.18
2018-08-10T19:20:52.667Z,21.16
2018-08-10T19:23:21.722Z,20.95
2018-08-10T19:25:50.714Z,20.87
2018-08-10T19:28:19.683Z,21.00
2018-08-10T19:30:48.576Z,21.15
2018-08-10T19:33:18.034Z,21.30
2018-08-10T19:35:46.983Z,20.84
2018-08-10T19:38:16.031Z,20.79
2018-08-10T19:40:44.998Z,20.93
2018-08-10T19:43:13.907Z,21.07
2018-08-10T19:45:42.930Z,21.00
2018-08-10T19:48:12.128Z,20.86
2018-08-10T19:50:41.072Z,20.97
2018-08-10T19:53:11.035Z,21.02
2018-08-10T19:55:39.986Z,20.77
2018-08-10T19:58:08.938Z,20.72
2018-08-10T20:00:37.910Z,20.62
2018-08-10T20:03:06.961Z,20.63
2018-08-10T20:05:35.855Z,20.68
2018-08-10T20:08:04.822Z,20.49
2018-08-10T20:10:34.059Z,20.52
2018-08-10T20:13:03.010Z,20.52
2018-08-10T20:15:31.989Z,20.33
2018-08-10T20:18:00.942Z,20.35
2018-08-10T20:20:29.900Z,20.26
2018-08-10T20:22:58.854Z,20.24
2018-08-10T20:25:27.820Z,20.23
2018-08-10T20:27:56.870Z,20.16
2018-08-10T20:30:25.876Z,20.03
2018-08-10T20:32:54.868Z,20.19
2018-08-10T20:35:24.053Z,20.12
2018-08-10T20:41:57.710Z,20.10
2018-08-10T20:44:26.684Z,20.23
2018-08-10T20:46:55.764Z,20.17
2018-08-10T20:49:24.829Z,20.06
2018-08-10T20:51:53.820Z,19.99
2018-08-10T20:54:22.713Z,19.83
2018-08-10T20:56:51.773Z,19.97
2018-08-10T20:59:21.069Z,20.11
2018-08-10T21:01:50.045Z,19.95
2018-08-10T21:04:19.161Z,19.80
2018-08-10T21:06:48.702Z,19.54
2018-08-10T21:09:17.610Z,19.46
2018-08-10T21:11:46.679Z,19.56
2018-08-10T21:14:15.589Z,19.37
2018-08-10T21:16:44.586Z,19.33
2018-08-10T21:19:14.384Z,19.59
2018-08-10T21:21:43.179Z,19.35
2018-08-10T21:24:12.335Z,19.09
2018-08-10T21:26:41.346Z,19.20
2018-08-10T21:29:10.247Z,19.35
2018-08-10T21:31:39.262Z,19.50
2018-08-10T21:34:08.242Z,19.20
2018-08-10T21:36:37.232Z,19.08
2018-08-10T21:39:09.039Z,19.44
2018-08-10T21:41:37.994Z,19.13
2018-08-10T21:44:07.262Z,18.95
2018-08-10T21:46:36.473Z,18.94
2018-08-10T21:49:05.961Z,18.80
2018-08-10T21:51:35.323Z,18.80
2018-08-10T21:54:04.368Z,18.71
2018-08-10T21:56:33.338Z,18.72
2018-08-10T21:59:02.325Z,18.48
2018-08-10T22:01:31.542Z,18.65
2018-08-10T22:04:05.685Z,18.73
2018-08-10T22:06:36.594Z,18.35
2018-08-10T22:09:06.978Z,18.49
2018-08-10T22:11:36.043Z,18.54
2018-08-10T22:14:11.337Z,18.64
2018-08-10T22:17:47.256Z,18.50
2018-08-10T22:20:16.334Z,18.54
2018-08-10T22:22:45.343Z,18.41
2018-08-10T22:25:16.520Z,18.46
2018-08-10T22:27:47.395Z,18.43
2018-08-10T22:30:17.413Z,18.52
2018-08-10T22:32:48.173Z,18.35
2018-08-10T22:35:18.141Z,18.36
2018-08-10T22:37:48.642Z,18.46
2018-08-10T22:40:18.388Z,18.33
2018-08-10T22:42:48.834Z,18.14
2018-08-10T22:45:20.089Z,18.33
2018-08-10T22:47:53.506Z,18.38
2018-08-10T22:50:22.624Z,18.38
2018-08-10T22:52:51.609Z,18.25
2018-08-10T22:55:21.312Z,18.28
2018-08-10T22:57:50.268Z,18.14
2018-08-10T23:00:20.413Z,18.12
2018-08-10T23:02:49.749Z,18.01
2018-08-10T23:05:18.710Z,18.00
2018-08-10T23:07:49.698Z,17.89
2018-08-10T23:10:20.962Z,18.11
2018-08-10T23:12:56.024Z,18.15
2018-08-10T23:15:25.605Z,18.00
2018-08-10T23:18:00.367Z,17.85
2018-08-10T23:20:31.190Z,17.64
2018-08-10T23:23:03.219Z,17.81
2018-08-10T23:25:38.572Z,17.72
2018-08-10T23:28:13.547Z,17.78
2018-08-10T23:30:45.952Z,17.70
2018-08-10T23:33:16.300Z,17.67
2018-08-10T23:35:45.207Z,17.62
2018-08-10T23:38:14.163Z,17.67
2018-08-10T23:40:43.048Z,17.47
2018-08-10T23:43:11.970Z,17.28
2018-08-10T23:45:40.905Z,17.30
2018-08-10T23:48:09.843Z,17.32
2018-08-10T23:50:38.815Z,17.30
2018-08-10T23:53:07.965Z,17.21
2018-08-10T23:55:36.863Z,17.23
2018-08-10T23:58:05.851Z,17.17
